createdAt,value
2022-08-03T00:00:15.212Z,15.42
2022-08-03T00:05:37.121Z,15.36
2022-08-03T00:10:39.009Z,15.31
2022-08-03T00:15:41.193Z,15.27
2022-08-03T00:20:43.673Z,15.24
2022-08-03T00:25:45.757Z,15.19
2022-08-03T00:30:47.530Z,15.16
2022-08-03T00:35:50.642Z,15.12
2022-08-03T00:40:53.231Z,15.08
2022-08-03T00:45:55.107Z,15.05
2022-08-03T00:50:57.804Z,15.01
2022-08-03T00:55:59.889Z,14.95
2022-08-03T01:01:01.690Z,14.92
2022-08-03T01:06:09.475Z,14.88
2022-08-03T01:11:29.891Z,14.84
2022-08-03T01:16:37.091Z,14.80
2022-08-03T01:21:39.069Z,14.78
2022-08-03T01:26:50.310Z,14.76
2022-08-03T01:32:53.660Z,14.73
2022-08-03T01:37:21.978Z,14.71
2022-08-03T01:42:25.182Z,14.67
2022-08-03T01:47:27.780Z,14.62
2022-08-03T01:52:30.984Z,14.58
2022-08-03T01:57:34.910Z,14.54
2022-08-03T02:02:57.982Z,14.49
2022-08-03T02:08:01.497Z,14.45
2022-08-03T02:13:04.708Z,14.41
2022-08-03T02:31:42.449Z,14.33
2022-08-03T02:36:46.333Z,14.36
2022-08-03T02:41:50.666Z,14.41
2022-08-03T02:46:54.898Z,14.47
2022-08-03T02:51:57.703Z,14.55
2022-08-03T03:06:41.108Z,14.63
2022-08-03T03:11:45.747Z,14.65
2022-08-03T03:16:51.787Z,14.66
2022-08-03T03:22:03.838Z,14.69
2022-08-03T03:27:05.614Z,14.74
2022-08-03T03:32:09.118Z,14.82
2022-08-03T03:37:11.210Z,14.89
2022-08-03T03:42:13.613Z,14.94
2022-08-03T03:53:55.964Z,15.08
2022-08-03T03:58:58.249Z,15.16
2022-08-03T04:04:19.891Z,15.23
2022-08-03T04:09:40.403Z,15.33
2022-08-03T04:14:49.350Z,15.41
2022-08-03T04:19:53.070Z,15.49
2022-08-03T04:25:10.631Z,15.56
2022-08-03T04:30:16.485Z,15.64
2022-08-03T04:35:20.614Z,15.73
2022-08-03T04:40:29.728Z,15.81
2022-08-03T04:45:35.118Z,15.91
2022-08-03T04:50:40.632Z,16.04
2022-08-03T04:55:42.455Z,16.25
2022-08-03T05:00:51.708Z,16.49
2022-08-03T05:12:01.199Z,17.33
2022-08-03T05:17:03.897Z,17.96
2022-08-03T05:22:09.216Z,19.27
2022-08-03T05:27:17.072Z,21.49
2022-08-03T06:24:57.706Z,34.00
2022-08-03T06:44:57.951Z,34.56
2022-08-03T06:50:12.793Z,35.24
2022-08-03T06:55:19.416Z,36.72
2022-08-03T07:00:21.908Z,38.41
2022-08-03T07:05:23.836Z,39.50
2022-08-03T07:10:25.976Z,39.30
2022-08-03T07:15:54.988Z,38.05
2022-08-03T07:20:50.813Z,36.91
2022-08-03T07:25:52.600Z,37.62
2022-08-03T07:30:54.374Z,37.97
2022-08-03T07:35:56.753Z,39.05
2022-08-03T07:40:58.535Z,40.73
2022-08-03T07:46:00.404Z,41.87
2022-08-03T07:51:03.203Z,42.82
2022-08-03T07:56:07.343Z,43.19
2022-08-03T08:01:15.046Z,42.27
2022-08-03T08:06:17.546Z,40.59
2022-08-03T08:11:21.881Z,39.07
2022-08-03T08:16:24.571Z,37.63
2022-08-03T08:21:26.552Z,36.40
2022-08-03T08:26:48.602Z,35.17
2022-08-03T08:31:50.377Z,34.23
2022-08-03T08:36:52.365Z,33.46
2022-08-03T08:41:54.029Z,32.97
2022-08-03T08:46:57.033Z,32.61
2022-08-03T08:52:01.161Z,32.75
2022-08-03T08:57:12.493Z,33.51
2022-08-03T09:02:28.979Z,34.74
2022-08-03T09:07:31.132Z,36.11
2022-08-03T09:12:41.391Z,36.92
2022-08-03T09:17:48.845Z,36.87
2022-08-03T09:22:54.411Z,36.75
2022-08-03T09:28:04.275Z,37.12
2022-08-03T09:33:10.863Z,38.28
2022-08-03T09:38:17.612Z,38.55
2022-08-03T09:43:19.633Z,38.21
2022-08-03T09:48:29.292Z,37.96
2022-08-03T09:53:31.279Z,37.55
2022-08-03T09:58:33.004Z,36.96
2022-08-03T10:04:03.481Z,36.36
2022-08-03T10:09:05.271Z,35.91
2022-08-03T10:14:07.966Z,35.43
2022-08-03T10:19:10.352Z,34.90
2022-08-03T10:24:12.846Z,34.58
2022-08-03T10:29:24.764Z,34.76
2022-08-03T10:34:28.888Z,34.75
2022-08-03T10:39:31.076Z,34.58
2022-08-03T10:44:37.457Z,34.37
2022-08-03T10:49:39.299Z,33.97
2022-08-03T10:55:00.982Z,33.57
2022-08-03T11:00:07.454Z,33.46
2022-08-03T11:05:25.516Z,33.54
2022-08-03T11:10:31.573Z,33.39
2022-08-03T11:15:34.186Z,33.08
2022-08-03T11:20:46.302Z,32.88
2022-08-03T11:26:07.425Z,32.84
2022-08-03T11:31:48.210Z,32.77
2022-08-03T11:37:05.455Z,32.34
2022-08-03T11:42:23.828Z,32.02
2022-08-03T11:47:28.052Z,32.17
2022-08-03T11:52:35.562Z,32.09
2022-08-03T11:59:00.851Z,31.64
2022-08-03T12:03:03.997Z,31.57
2022-08-03T12:08:08.224Z,31.77
2022-08-03T12:14:44.892Z,31.77
2022-08-03T12:18:34.608Z,31.56
2022-08-03T12:23:38.841Z,31.34
2022-08-03T12:28:49.784Z,31.01
2022-08-03T12:34:03.594Z,30.52
2022-08-03T12:39:08.143Z,30.36
2022-08-03T12:44:11.438Z,30.27
2022-08-03T12:49:16.005Z,30.20
2022-08-03T12:54:24.714Z,30.27
2022-08-03T12:59:32.376Z,30.27
2022-08-03T13:04:38.918Z,30.35
2022-08-03T13:09:46.430Z,30.30
2022-08-03T13:14:51.081Z,30.42
2022-08-03T13:19:54.479Z,30.58
2022-08-03T13:24:58.411Z,30.35
2022-08-03T13:30:01.624Z,30.06
2022-08-03T13:35:08.227Z,29.89
2022-08-03T13:40:12.712Z,29.90
2022-08-03T13:45:18.404Z,30.01
2022-08-03T13:50:22.225Z,30.08
2022-08-03T13:55:25.743Z,29.92
2022-08-03T14:00:29.750Z,29.89
2022-08-03T14:05:33.801Z,29.92
2022-08-03T14:10:38.239Z,29.96
2022-08-03T14:15:41.692Z,29.92
2022-08-03T14:20:56.342Z,29.89
2022-08-03T14:26:01.070Z,29.91
2022-08-03T14:31:04.382Z,29.86
2022-08-03T14:36:11.786Z,29.80
2022-08-03T14:41:20.107Z,29.69
2022-08-03T14:46:23.733Z,29.58
2022-08-03T14:51:26.843Z,29.47
2022-08-03T14:56:35.285Z,29.46
2022-08-03T15:02:02.674Z,29.42
2022-08-03T15:07:02.062Z,29.29
2022-08-03T15:12:06.807Z,29.20
2022-08-03T15:17:10.116Z,29.10
2022-08-03T15:22:15.990Z,29.05
2022-08-03T15:27:24.521Z,28.99
2022-08-03T15:32:27.936Z,28.85
2022-08-03T15:37:31.041Z,28.81
2022-08-03T15:42:34.458Z,28.81
2022-08-03T15:47:37.931Z,28.75
2022-08-03T15:52:42.405Z,28.73
2022-08-03T15:59:10.239Z,28.73
2022-08-03T16:03:09.721Z,28.68
2022-08-03T16:08:14.104Z,28.64
2022-08-03T16:13:17.867Z,28.61
2022-08-03T16:18:21.898Z,28.52
2022-08-03T16:23:25.312Z,28.43
2022-08-03T16:28:35.691Z,28.39
2022-08-03T16:33:38.999Z,28.35
2022-08-03T16:38:42.208Z,28.26
2022-08-03T16:43:45.424Z,28.15
2022-08-03T16:48:48.633Z,28.05
2022-08-03T16:54:05.447Z,27.98
2022-08-03T16:59:11.351Z,27.90
2022-08-03T17:04:14.633Z,27.81
2022-08-03T17:09:20.541Z,27.74
2022-08-03T17:14:28.213Z,27.67
2022-08-03T17:19:35.283Z,27.58
2022-08-03T17:24:42.343Z,27.50
2022-08-03T17:29:47.724Z,27.37
2022-08-03T17:34:50.883Z,27.24
2022-08-03T17:39:59.119Z,27.09
2022-08-03T17:45:06.449Z,26.94
2022-08-03T17:50:24.724Z,26.78
2022-08-03T17:55:58.652Z,26.57
2022-08-03T18:02:00.531Z,26.32
2022-08-03T18:06:55.722Z,26.04
2022-08-03T18:12:01.986Z,25.75
2022-08-03T18:17:11.032Z,25.44
2022-08-03T18:22:14.243Z,25.08
2022-08-03T18:27:19.525Z,24.69
2022-08-03T18:32:25.254Z,24.32
2022-08-03T18:37:29.908Z,23.95
2022-08-03T18:42:33.526Z,23.57
2022-08-03T18:47:51.866Z,23.23
2022-08-03T18:52:58.885Z,22.89
2022-08-03T18:58:09.569Z,22.58
2022-08-03T19:03:25.700Z,22.30
2022-08-03T19:08:49.573Z,22.04
2022-08-03T19:13:57.135Z,21.81
2022-08-03T19:19:01.832Z,21.59
2022-08-03T19:24:09.753Z,21.42
2022-08-03T19:29:15.052Z,21.27
2022-08-03T19:34:21.770Z,21.12
2022-08-03T19:39:31.753Z,20.98
2022-08-03T19:44:37.954Z,20.84
2022-08-03T19:49:57.793Z,20.66
2022-08-03T19:55:14.113Z,20.47
2022-08-03T20:00:26.692Z,20.29
2022-08-03T20:05:44.794Z,20.12
2022-08-03T20:10:55.676Z,19.96
2022-08-03T20:15:59.041Z,19.84
2022-08-03T20:21:15.173Z,19.81
2022-08-03T20:26:34.533Z,19.79
2022-08-03T20:31:37.894Z,19.70
2022-08-03T20:36:41.260Z,19.61
2022-08-03T20:41:45.798Z,19.46
2022-08-03T20:47:00.168Z,19.27
2022-08-03T20:52:04.299Z,19.12
2022-08-03T20:57:11.613Z,19.00
2022-08-03T21:02:19.855Z,18.91
2022-08-03T21:08:06.058Z,18.81
2022-08-03T21:13:18.859Z,18.72
2022-08-03T21:18:23.728Z,18.64
2022-08-03T21:23:40.473Z,18.64
2022-08-03T21:28:52.159Z,18.59
2022-08-03T21:33:56.908Z,18.48
2022-08-03T21:39:01.277Z,18.37
2022-08-03T21:44:05.749Z,18.23
2022-08-03T21:50:07.140Z,18.13
2022-08-03T21:54:35.444Z,18.04
2022-08-03T21:59:41.721Z,17.96
2022-08-03T22:04:55.378Z,17.91
2022-08-03T22:10:00.321Z,17.84
2022-08-03T22:15:05.669Z,17.75
2022-08-03T22:20:10.260Z,17.66
2022-08-03T22:25:15.577Z,17.59
2022-08-03T22:30:19.506Z,17.49
2022-08-03T22:35:24.352Z,17.40
2022-08-03T22:40:28.172Z,17.76
2022-08-03T22:46:06.093Z,18.70
2022-08-03T22:50:55.991Z,18.37
2022-08-03T22:55:59.197Z,18.08
2022-08-03T23:01:04.560Z,17.86
2022-08-03T23:06:08.791Z,17.63
2022-08-03T23:11:12.892Z,17.52
2022-08-03T23:16:16.847Z,17.55
2022-08-03T23:21:53.705Z,17.35
2022-08-03T23:26:57.363Z,17.17
2022-08-03T23:32:01.593Z,17.04
2022-08-03T23:37:06.031Z,16.90
2022-08-03T23:42:09.953Z,16.78
2022-08-03T23:47:13.833Z,16.67
2022-08-03T23:52:55.593Z,16.61
2022-08-03T23:57:58.697Z,16.59
